Toyofukumaru — JD2177 — position and weather

sailwx.info

Track history (hours):
 
Tides and Currents Weather Stations Pressure Air Temp Water Temp Dewpoint Dewpoint Depression Visibility Wind Speed Wind Dir Waves Ship Positions

Toyofukumaru

Last reported at 2017-Jun-26 10:16 UTC. Time now 2017-Jun-26 12:17 UTC.
Position N 33°54' E 134°59'.

Length 165 m; draft 6.2 m.

Type: Cargo ship. MMSI: 431200688.

Date/timePositionNaut miles runAvg speedWind from/ knotsBaromVisibWave heightAir tempDewpointWater temp
2017-Jun-26 10:16N 33°54' E 134°59'517.1
2017-Jun-26 10:00N 33°58' E 134°59'1019.3
2017-Jun-26 09:30N 34°08' E 134°59'1120.5
2017-Jun-26 08:59N 34°19' E 134°58'919.3
2017-Jun-26 08:31N 34°28' E 135°01'918.1
2017-Jun-26 08:00N 34°37' E 135°01'  
2017-Jun-24 02:09N 34°34' E 134°50'216.2
2017-Jun-24 02:00N 34°35' E 134°52'815.8
2017-Jun-24 01:30N 34°37' E 135°01'816.1
2017-Jun-24 01:00N 34°29' E 135°05'917.6
2017-Jun-24 00:30N 34°21' E 135°01'1019.9
2017-Jun-24 00:00N 34°11' E 134°60'227 6.9
2017-Jun-22 15:08N 34°57' E 139°30'318.2
2017-Jun-22 14:59N 34°59' E 139°32'919.8
2017-Jun-22 14:30N 35°05' E 139°41'1413.7
2017-Jun-22 13:30N 35°19' E 139°43'611.1
2017-Jun-22 13:00N 35°23' E 139°39'0 0.0
2017-Jun-22 12:30N 35°23' E 139°39'0 0.0
2017-Jun-22 12:00N 35°23' E 139°39'0 0.0
2017-Jun-22 11:29N 35°23' E 139°39'0 0.0
2017-Jun-22 10:56N 35°23' E 139°39'0 0.0
2017-Jun-22 10:30N 35°23' E 139°39'0 0.0
2017-Jun-22 10:00N 35°23' E 139°39'1 2.4
2017-Jun-22 09:31N 35°23' E 139°40'918.6
2017-Jun-22 09:00N 35°29' E 139°50'1019.5
2017-Jun-22 08:30N 35°34' E 140°00'5 9.7
2017-Jun-22 08:00N 35°36' E 140°05'0 0.0
2017-Jun-22 07:30N 35°36' E 140°05'0 0.0
2017-Jun-22 07:00N 35°36' E 140°05'0 0.0
2017-Jun-22 06:27N 35°36' E 140°05'0 0.0
2017-Jun-22 05:15N 35°36' E 140°05'0 0.0
2017-Jun-22 04:57N 35°36' E 140°05'0 0.0
2017-Jun-22 04:09N 35°36' E 140°05'0 0.0
2017-Jun-22 03:57N 35°36' E 140°05'0 0.0
2017-Jun-22 01:10N 35°36' E 140°05'0 0.0
2017-Jun-22 00:59N 35°36' E 140°05'4 8.1
2017-Jun-22 00:30N 35°34' E 140°01'918.7
2017-Jun-22 00:00N 35°28' E 139°52'815.3
2017-Jun-21 23:31N 35°23' E 139°46'611.2
2017-Jun-21 23:01N 35°17' E 139°45'611.9
2017-Jun-21 22:30N 35°11' E 139°47'815.6
2017-Jun-21 22:00N 35°05' E 139°41'243 6.9
2017-Jun-20 10:52N 33°57' E 134°58'719.1
2017-Jun-20 10:30N 34°04' E 134°58'919.2
2017-Jun-20 10:01N 34°13' E 134°58'918.1
2017-Jun-20 09:30N 34°22' E 134°60'918.5
2017-Jun-20 09:00N 34°31' E 135°02'612.3
2017-Jun-20 08:30N 34°37' E 134°59'816.6
2017-Jun-20 08:00N 34°34' E 134°50'  
2017-Jun-17 22:03N 34°32' E 134°43'220.1
2017-Jun-17 21:58N 34°33' E 134°45'919.8
2017-Jun-17 21:31N 34°36' E 134°55'816.8
2017-Jun-17 21:01N 34°35' E 135°05'1020.0
2017-Jun-17 20:31N 34°25' E 135°03'1019.7
2017-Jun-17 20:00N 34°15' E 134°60'1020.2
2017-Jun-17 19:30N 34°05' E 134°59'235 8.1
2017-Jun-16 14:32N 35°02' E 139°37'121.1
2017-Jun-16 14:28N 35°03' E 139°38'1515.6
2017-Jun-16 13:30N 35°16' E 139°45'713.4
2017-Jun-16 13:00N 35°22' E 139°41'2 4.2
2017-Jun-16 12:28N 35°23' E 139°39'0 0.0
2017-Jun-16 11:58N 35°23' E 139°39'0 0.0
2017-Jun-16 11:28N 35°23' E 139°39'0 0.0
2017-Jun-16 10:58N 35°23' E 139°39'0 0.0
2017-Jun-16 10:28N 35°23' E 139°39'  
Track history (hours):
 
Tides and Currents Weather Stations Pressure Air Temp Water Temp Dewpoint Dewpoint Depression Visibility Wind Speed Wind Dir Waves Ship Positions

Toyofukumaru

Last reported at 2017-Jun-26 10:16 UTC. Time now 2017-Jun-26 12:17 UTC.
Position N 33°54' E 134°59'.

Length 165 m; draft 6.2 m.

Type: Cargo ship. MMSI: 431200688.

Date/timePositionNaut miles runAvg speedWind from/ knotsBaromVisibWave heightAir tempDewpointWater temp
2017-Jun-26 10:16N 33°54' E 134°59'517.1
2017-Jun-26 10:00N 33°58' E 134°59'1019.3
2017-Jun-26 09:30N 34°08' E 134°59'1120.5
2017-Jun-26 08:59N 34°19' E 134°58'919.3
2017-Jun-26 08:31N 34°28' E 135°01'918.1
2017-Jun-26 08:00N 34°37' E 135°01'  
2017-Jun-24 02:09N 34°34' E 134°50'216.2
2017-Jun-24 02:00N 34°35' E 134°52'815.8
2017-Jun-24 01:30N 34°37' E 135°01'816.1
2017-Jun-24 01:00N 34°29' E 135°05'917.6
2017-Jun-24 00:30N 34°21' E 135°01'1019.9
2017-Jun-24 00:00N 34°11' E 134°60'227 6.9
2017-Jun-22 15:08N 34°57' E 139°30'318.2
2017-Jun-22 14:59N 34°59' E 139°32'919.8
2017-Jun-22 14:30N 35°05' E 139°41'1413.7
2017-Jun-22 13:30N 35°19' E 139°43'611.1
2017-Jun-22 13:00N 35°23' E 139°39'0 0.0
2017-Jun-22 12:30N 35°23' E 139°39'0 0.0
2017-Jun-22 12:00N 35°23' E 139°39'0 0.0
2017-Jun-22 11:29N 35°23' E 139°39'0 0.0
2017-Jun-22 10:56N 35°23' E 139°39'0 0.0
2017-Jun-22 10:30N 35°23' E 139°39'0 0.0
2017-Jun-22 10:00N 35°23' E 139°39'1 2.4
2017-Jun-22 09:31N 35°23' E 139°40'918.6
2017-Jun-22 09:00N 35°29' E 139°50'1019.5
2017-Jun-22 08:30N 35°34' E 140°00'5 9.7
2017-Jun-22 08:00N 35°36' E 140°05'0 0.0
2017-Jun-22 07:30N 35°36' E 140°05'0 0.0
2017-Jun-22 07:00N 35°36' E 140°05'0 0.0
2017-Jun-22 06:27N 35°36' E 140°05'0 0.0
2017-Jun-22 05:15N 35°36' E 140°05'0 0.0
2017-Jun-22 04:57N 35°36' E 140°05'0 0.0
2017-Jun-22 04:09N 35°36' E 140°05'0 0.0
2017-Jun-22 03:57N 35°36' E 140°05'0 0.0
2017-Jun-22 01:10N 35°36' E 140°05'0 0.0
2017-Jun-22 00:59N 35°36' E 140°05'4 8.1
2017-Jun-22 00:30N 35°34' E 140°01'918.7
2017-Jun-22 00:00N 35°28' E 139°52'815.3
2017-Jun-21 23:31N 35°23' E 139°46'611.2
2017-Jun-21 23:01N 35°17' E 139°45'611.9
2017-Jun-21 22:30N 35°11' E 139°47'815.6
2017-Jun-21 22:00N 35°05' E 139°41'243 6.9
2017-Jun-20 10:52N 33°57' E 134°58'719.1
2017-Jun-20 10:30N 34°04' E 134°58'919.2
2017-Jun-20 10:01N 34°13' E 134°58'918.1
2017-Jun-20 09:30N 34°22' E 134°60'918.5
2017-Jun-20 09:00N 34°31' E 135°02'612.3
2017-Jun-20 08:30N 34°37' E 134°59'816.6
2017-Jun-20 08:00N 34°34' E 134°50'  
2017-Jun-17 22:03N 34°32' E 134°43'220.1
2017-Jun-17 21:58N 34°33' E 134°45'919.8
2017-Jun-17 21:31N 34°36' E 134°55'816.8
2017-Jun-17 21:01N 34°35' E 135°05'1020.0
2017-Jun-17 20:31N 34°25' E 135°03'1019.7
2017-Jun-17 20:00N 34°15' E 134°60'1020.2
2017-Jun-17 19:30N 34°05' E 134°59'235 8.1
2017-Jun-16 14:32N 35°02' E 139°37'121.1
2017-Jun-16 14:28N 35°03' E 139°38'1515.6
2017-Jun-16 13:30N 35°16' E 139°45'713.4
2017-Jun-16 13:00N 35°22' E 139°41'2 4.2
2017-Jun-16 12:28N 35°23' E 139°39'0 0.0
2017-Jun-16 11:58N 35°23' E 139°39'0 0.0
2017-Jun-16 11:28N 35°23' E 139°39'0 0.0
2017-Jun-16 10:58N 35°23' E 139°39'0 0.0
2017-Jun-16 10:28N 35°23' E 139°39'  

Dump ship's entire track history